sensor_id;sensor_type;location;lat;lon;timestamp;temperature;humidity
23347;DHT22;36852;45.466;11.066;2023-06-14T00:00:08;23.80;99.90
23347;DHT22;36852;45.466;11.066;2023-06-14T00:02:39;23.80;99.90
23347;DHT22;36852;45.466;11.066;2023-06-14T00:05:08;23.90;99.90
23347;DHT22;36852;45.466;11.066;2023-06-14T00:07:38;23.80;99.90
23347;DHT22;36852;45.466;11.066;2023-06-14T00:10:09;23.80;99.90
23347;DHT22;36852;45.466;11.066;2023-06-14T00:12:45;23.80;99.90
23347;DHT22;36852;45.466;11.066;2023-06-14T00:15:13;23.70;99.90
23347;DHT22;36852;45.466;11.066;2023-06-14T00:17:42;23.70;99.90
23347;DHT22;36852;45.466;11.066;2023-06-14T00:20:15;23.70;99.90
23347;DHT22;36852;45.466;11.066;2023-06-14T00:22:44;23.70;99.90
23347;DHT22;36852;45.466;11.066;2023-06-14T00:25:13;23.70;99.90
23347;DHT22;36852;45.466;11.066;2023-06-14T00:27:43;23.60;99.90
23347;DHT22;36852;45.466;11.066;2023-06-14T00:30:11;23.60;99.90
23347;DHT22;36852;45.466;11.066;2023-06-14T00:32:39;23.60;99.90
23347;DHT22;36852;45.466;11.066;2023-06-14T00:35:08;23.60;99.90
23347;DHT22;36852;45.466;11.066;2023-06-14T00:37:36;23.60;99.90
23347;DHT22;36852;45.466;11.066;2023-06-14T00:40:05;23.60;99.90
23347;DHT22;36852;45.466;11.066;2023-06-14T00:42:33;23.60;99.90
23347;DHT22;36852;45.466;11.066;2023-06-14T00:45:04;23.60;99.90
23347;DHT22;36852;45.466;11.066;2023-06-14T00:47:33;23.60;99.90
23347;DHT22;36852;45.466;11.066;2023-06-14T00:50:01;23.50;99.90
23347;DHT22;36852;45.466;11.066;2023-06-14T00:52:30;23.50;99.90
23347;DHT22;36852;45.466;11.066;2023-06-14T00:54:59;23.50;99.90
23347;DHT22;36852;45.466;11.066;2023-06-14T00:57:29;23.50;99.90
23347;DHT22;36852;45.466;11.066;2023-06-14T00:59:57;23.50;99.90
23347;DHT22;36852;45.466;11.066;2023-06-14T01:02:27;23.40;99.90
23347;DHT22;36852;45.466;11.066;2023-06-14T01:04:56;23.30;99.90
23347;DHT22;36852;45.466;11.066;2023-06-14T01:11:13;23.10;99.90
23347;DHT22;36852;45.466;11.066;2023-06-14T01:15:35;23.10;99.90
23347;DHT22;36852;45.466;11.066;2023-06-14T01:18:04;23.10;99.90
23347;DHT22;36852;45.466;11.066;2023-06-14T01:20:33;23.10;99.90
23347;DHT22;36852;45.466;11.066;2023-06-14T01:23:06;23.10;99.90
23347;DHT22;36852;45.466;11.066;2023-06-14T01:25:33;23.10;99.90
23347;DHT22;36852;45.466;11.066;2023-06-14T01:28:04;23.10;99.90
23347;DHT22;36852;45.466;11.066;2023-06-14T01:30:34;23.10;99.90
23347;DHT22;36852;45.466;11.066;2023-06-14T01:33:03;23.10;99.90
23347;DHT22;36852;45.466;11.066;2023-06-14T01:35:32;23.10;99.90
23347;DHT22;36852;45.466;11.066;2023-06-14T01:38:02;23.10;99.90
23347;DHT22;36852;45.466;11.066;2023-06-14T01:40:31;23.00;99.90
23347;DHT22;36852;45.466;11.066;2023-06-14T01:42:59;23.00;99.90
23347;DHT22;36852;45.466;11.066;2023-06-14T01:45:29;23.00;99.90
23347;DHT22;36852;45.466;11.066;2023-06-14T01:47:58;23.00;99.90
23347;DHT22;36852;45.466;11.066;2023-06-14T01:50:30;23.00;99.90
23347;DHT22;36852;45.466;11.066;2023-06-14T01:52:58;23.00;99.90
23347;DHT22;36852;45.466;11.066;2023-06-14T01:55:27;23.00;99.90
23347;DHT22;36852;45.466;11.066;2023-06-14T01:57:54;23.00;99.90
23347;DHT22;36852;45.466;11.066;2023-06-14T02:00:22;23.00;99.90
23347;DHT22;36852;45.466;11.066;2023-06-14T02:02:52;23.00;99.90
23347;DHT22;36852;45.466;11.066;2023-06-14T02:05:20;23.00;99.90
23347;DHT22;36852;45.466;11.066;2023-06-14T02:07:48;23.00;99.90
23347;DHT22;36852;45.466;11.066;2023-06-14T02:10:17;23.00;99.90
23347;DHT22;36852;45.466;11.066;2023-06-14T02:12:46;23.00;99.90
23347;DHT22;36852;45.466;11.066;2023-06-14T02:15:17;22.90;99.90
23347;DHT22;36852;45.466;11.066;2023-06-14T02:17:48;22.90;99.90
23347;DHT22;36852;45.466;11.066;2023-06-14T02:23:08;22.90;99.90
23347;DHT22;36852;45.466;11.066;2023-06-14T02:25:35;22.90;99.90
23347;DHT22;36852;45.466;11.066;2023-06-14T02:28:05;22.80;99.90
23347;DHT22;36852;45.466;11.066;2023-06-14T02:30:33;22.80;99.90
23347;DHT22;36852;45.466;11.066;2023-06-14T02:33:01;22.70;99.90
23347;DHT22;36852;45.466;11.066;2023-06-14T02:35:32;22.80;99.90
23347;DHT22;36852;45.466;11.066;2023-06-14T02:38:02;22.80;99.90
23347;DHT22;36852;45.466;11.066;2023-06-14T02:40:32;22.70;99.90
23347;DHT22;36852;45.466;11.066;2023-06-14T02:43:04;22.70;99.90
23347;DHT22;36852;45.466;11.066;2023-06-14T02:45:32;22.70;99.90
23347;DHT22;36852;45.466;11.066;2023-06-14T02:48:00;22.70;99.90
23347;DHT22;36852;45.466;11.066;2023-06-14T02:50:28;22.60;99.90
23347;DHT22;36852;45.466;11.066;2023-06-14T02:52:57;22.60;99.90
23347;DHT22;36852;45.466;11.066;2023-06-14T02:55:25;22.60;99.90
23347;DHT22;36852;45.466;11.066;2023-06-14T02:57:56;22.60;99.90
23347;DHT22;36852;45.466;11.066;2023-06-14T03:00:25;22.60;99.90
23347;DHT22;36852;45.466;11.066;2023-06-14T03:02:54;22.60;99.90
23347;DHT22;36852;45.466;11.066;2023-06-14T03:05:23;22.60;99.90
23347;DHT22;36852;45.466;11.066;2023-06-14T03:07:51;22.50;99.90
23347;DHT22;36852;45.466;11.066;2023-06-14T03:13:07;22.50;99.90
23347;DHT22;36852;45.466;11.066;2023-06-14T03:15:35;22.50;99.90
23347;DHT22;36852;45.466;11.066;2023-06-14T03:18:03;22.50;99.90
23347;DHT22;36852;45.466;11.066;2023-06-14T03:20:31;22.50;99.90
23347;DHT22;36852;45.466;11.066;2023-06-14T03:23:01;22.50;99.90
23347;DHT22;36852;45.466;11.066;2023-06-14T03:28:17;22.40;99.90
23347;DHT22;36852;45.466;11.066;2023-06-14T03:30:45;22.40;99.90
23347;DHT22;36852;45.466;11.066;2023-06-14T03:33:14;22.40;99.90
23347;DHT22;36852;45.466;11.066;2023-06-14T03:35:45;22.40;99.90
23347;DHT22;36852;45.466;11.066;2023-06-14T03:38:14;22.40;99.90
23347;DHT22;36852;45.466;11.066;2023-06-14T03:40:42;22.30;99.90
23347;DHT22;36852;45.466;11.066;2023-06-14T03:43:10;22.40;99.90
23347;DHT22;36852;45.466;11.066;2023-06-14T03:45:40;22.40;99.90
23347;DHT22;36852;45.466;11.066;2023-06-14T03:48:09;22.40;99.90
23347;DHT22;36852;45.466;11.066;2023-06-14T03:50:37;22.30;99.90
23347;DHT22;36852;45.466;11.066;2023-06-14T03:55:52;22.40;99.90
23347;DHT22;36852;45.466;11.066;2023-06-14T03:58:24;22.40;99.90
23347;DHT22;36852;45.466;11.066;2023-06-14T04:00:53;22.30;99.90
23347;DHT22;36852;45.466;11.066;2023-06-14T04:03:21;22.30;99.90
23347;DHT22;36852;45.466;11.066;2023-06-14T04:05:51;22.30;99.90
23347;DHT22;36852;45.466;11.066;2023-06-14T04:08:20;22.30;99.90
23347;DHT22;36852;45.466;11.066;2023-06-14T04:10:50;22.30;99.90
23347;DHT22;36852;45.466;11.066;2023-06-14T04:13:18;22.30;99.90
23347;DHT22;36852;45.466;11.066;2023-06-14T04:15:47;22.40;99.90
23347;DHT22;36852;45.466;11.066;2023-06-14T04:18:17;22.40;99.90
23347;DHT22;36852;45.466;11.066;2023-06-14T04:20:48;22.40;99.90
23347;DHT22;36852;45.466;11.066;2023-06-14T04:23:17;22.50;99.90
23347;DHT22;36852;45.466;11.066;2023-06-14T04:25:45;22.50;99.90
23347;DHT22;36852;45.466;11.066;2023-06-14T04:28:16;22.50;99.90
23347;DHT22;36852;45.466;11.066;2023-06-14T04:30:45;22.60;99.90
23347;DHT22;36852;45.466;11.066;2023-06-14T04:33:16;22.60;99.90
23347;DHT22;36852;45.466;11.066;2023-06-14T04:35:45;22.60;99.90
23347;DHT22;36852;45.466;11.066;2023-06-14T04:38:16;22.70;99.90
23347;DHT22;36852;45.466;11.066;2023-06-14T04:40:43;22.70;99.90
23347;DHT22;36852;45.466;11.066;2023-06-14T04:43:14;22.70;99.90
23347;DHT22;36852;45.466;11.066;2023-06-14T04:45:44;22.70;99.90
23347;DHT22;36852;45.466;11.066;2023-06-14T04:48:15;22.70;99.90
23347;DHT22;36852;45.466;11.066;2023-06-14T04:50:48;22.80;99.90
23347;DHT22;36852;45.466;11.066;2023-06-14T04:53:19;22.90;99.90
23347;DHT22;36852;45.466;11.066;2023-06-14T04:55:50;22.90;99.90
23347;DHT22;36852;45.466;11.066;2023-06-14T04:58:20;23.00;99.90
23347;DHT22;36852;45.466;11.066;2023-06-14T05:00:48;23.00;99.90
23347;DHT22;36852;45.466;11.066;2023-06-14T05:03:15;23.00;99.90
23347;DHT22;36852;45.466;11.066;2023-06-14T05:05:46;23.10;99.90
23347;DHT22;36852;45.466;11.066;2023-06-14T05:08:14;23.10;99.90
23347;DHT22;36852;45.466;11.066;2023-06-14T05:10:43;23.20;99.90
23347;DHT22;36852;45.466;11.066;2023-06-14T05:13:11;23.20;99.90
23347;DHT22;36852;45.466;11.066;2023-06-14T05:15:39;23.20;99.90
23347;DHT22;36852;45.466;11.066;2023-06-14T05:18:07;23.20;99.90
23347;DHT22;36852;45.466;11.066;2023-06-14T05:20:39;23.30;99.90
23347;DHT22;36852;45.466;11.066;2023-06-14T05:23:08;23.30;99.90
23347;DHT22;36852;45.466;11.066;2023-06-14T05:25:36;23.30;99.90
23347;DHT22;36852;45.466;11.066;2023-06-14T05:28:05;23.40;99.90
23347;DHT22;36852;45.466;11.066;2023-06-14T05:30:33;23.40;99.90
23347;DHT22;36852;45.466;11.066;2023-06-14T05:33:01;23.40;99.90
23347;DHT22;36852;45.466;11.066;2023-06-14T05:35:30;23.40;99.90
23347;DHT22;36852;45.466;11.066;2023-06-14T05:37:58;23.40;99.90
23347;DHT22;36852;45.466;11.066;2023-06-14T05:40:26;23.40;99.90
23347;DHT22;36852;45.466;11.066;2023-06-14T05:42:54;23.40;99.90
23347;DHT22;36852;45.466;11.066;2023-06-14T05:45:24;23.40;99.90
23347;DHT22;36852;45.466;11.066;2023-06-14T05:47:52;23.40;99.90
23347;DHT22;36852;45.466;11.066;2023-06-14T05:50:22;23.40;99.90
23347;DHT22;36852;45.466;11.066;2023-06-14T05:52:50;23.50;99.90
23347;DHT22;36852;45.466;11.066;2023-06-14T05:55:18;23.50;99.90
23347;DHT22;36852;45.466;11.066;2023-06-14T05:57:46;23.50;99.90
23347;DHT22;36852;45.466;11.066;2023-06-14T06:00:16;23.50;99.90
23347;DHT22;36852;45.466;11.066;2023-06-14T06:02:45;23.50;99.90
23347;DHT22;36852;45.466;11.066;2023-06-14T06:05:15;23.50;99.90
23347;DHT22;36852;45.466;11.066;2023-06-14T06:07:43;23.50;99.90
23347;DHT22;36852;45.466;11.066;2023-06-14T06:10:14;23.50;99.90
23347;DHT22;36852;45.466;11.066;2023-06-14T06:12:42;23.50;99.90
23347;DHT22;36852;45.466;11.066;2023-06-14T06:15:10;23.50;99.90
23347;DHT22;36852;45.466;11.066;2023-06-14T06:17:43;23.50;99.90
23347;DHT22;36852;45.466;11.066;2023-06-14T06:20:13;23.60;99.90
23347;DHT22;36852;45.466;11.066;2023-06-14T06:22:41;23.60;99.90
23347;DHT22;36852;45.466;11.066;2023-06-14T06:25:10;23.60;99.90
23347;DHT22;36852;45.466;11.066;2023-06-14T06:27:39;23.70;99.90
23347;DHT22;36852;45.466;11.066;2023-06-14T06:30:08;23.70;99.90
23347;DHT22;36852;45.466;11.066;2023-06-14T06:32:38;23.70;99.90
23347;DHT22;36852;45.466;11.066;2023-06-14T06:35:07;23.70;99.90
23347;DHT22;36852;45.466;11.066;2023-06-14T06:37:36;23.70;99.90
23347;DHT22;36852;45.466;11.066;2023-06-14T06:40:07;23.80;99.90
23347;DHT22;36852;45.466;11.066;2023-06-14T06:42:35;23.80;99.90
23347;DHT22;36852;45.466;11.066;2023-06-14T06:45:05;23.80;99.90
23347;DHT22;36852;45.466;11.066;2023-06-14T06:47:33;23.80;99.90
23347;DHT22;36852;45.466;11.066;2023-06-14T06:50:02;23.70;99.90
23347;DHT22;36852;45.466;11.066;2023-06-14T06:52:30;23.70;99.90
23347;DHT22;36852;45.466;11.066;2023-06-14T06:54:58;23.70;99.90
23347;DHT22;36852;45.466;11.066;2023-06-14T06:57:26;23.70;99.90
23347;DHT22;36852;45.466;11.066;2023-06-14T07:00:00;23.70;99.90
23347;DHT22;36852;45.466;11.066;2023-06-14T07:02:29;23.70;99.90
23347;DHT22;36852;45.466;11.066;2023-06-14T07:04:59;23.60;99.90
23347;DHT22;36852;45.466;11.066;2023-06-14T07:07:27;23.60;99.90
23347;DHT22;36852;45.466;11.066;2023-06-14T07:09:56;23.60;99.90
23347;DHT22;36852;45.466;11.066;2023-06-14T07:12:24;23.60;99.90
23347;DHT22;36852;45.466;11.066;2023-06-14T07:14:52;23.60;99.90
23347;DHT22;36852;45.466;11.066;2023-06-14T07:17:20;23.60;99.90
23347;DHT22;36852;45.466;11.066;2023-06-14T07:19:51;23.60;99.90
23347;DHT22;36852;45.466;11.066;2023-06-14T07:22:19;23.60;99.90
23347;DHT22;36852;45.466;11.066;2023-06-14T07:24:48;23.70;99.90
23347;DHT22;36852;45.466;11.066;2023-06-14T07:27:16;23.70;99.90
23347;DHT22;36852;45.466;11.066;2023-06-14T07:29:45;23.70;99.90
23347;DHT22;36852;45.466;11.066;2023-06-14T07:32:12;23.70;99.90
23347;DHT22;36852;45.466;11.066;2023-06-14T07:34:41;23.70;99.90
23347;DHT22;36852;45.466;11.066;2023-06-14T07:37:14;23.80;99.90
23347;DHT22;36852;45.466;11.066;2023-06-14T07:39:42;23.80;99.90
23347;DHT22;36852;45.466;11.066;2023-06-14T07:42:10;23.80;99.90
23347;DHT22;36852;45.466;11.066;2023-06-14T07:44:38;23.80;99.90
23347;DHT22;36852;45.466;11.066;2023-06-14T07:47:06;23.80;99.90
23347;DHT22;36852;45.466;11.066;2023-06-14T07:49:34;23.80;99.90
23347;DHT22;36852;45.466;11.066;2023-06-14T07:52:02;23.90;99.90
23347;DHT22;36852;45.466;11.066;2023-06-14T07:54:30;23.80;99.90
23347;DHT22;36852;45.466;11.066;2023-06-14T07:56:59;23.80;99.90
23347;DHT22;36852;45.466;11.066;2023-06-14T07:59:28;23.80;99.90
23347;DHT22;36852;45.466;11.066;2023-06-14T08:01:56;23.80;99.90
23347;DHT22;36852;45.466;11.066;2023-06-14T08:04:24;23.90;99.90
23347;DHT22;36852;45.466;11.066;2023-06-14T08:06:53;23.90;99.90
23347;DHT22;36852;45.466;11.066;2023-06-14T08:09:20;23.90;99.90
23347;DHT22;36852;45.466;11.066;2023-06-14T08:11:49;24.00;99.90
23347;DHT22;36852;45.466;11.066;2023-06-14T08:14:17;24.10;99.90
23347;DHT22;36852;45.466;11.066;2023-06-14T08:16:45;24.10;99.90
23347;DHT22;36852;45.466;11.066;2023-06-14T08:19:13;24.10;99.90
23347;DHT22;36852;45.466;11.066;2023-06-14T08:21:41;24.20;99.90
23347;DHT22;36852;45.466;11.066;2023-06-14T08:24:10;24.30;99.90
23347;DHT22;36852;45.466;11.066;2023-06-14T08:26:40;24.30;99.90
23347;DHT22;36852;45.466;11.066;2023-06-14T08:29:08;24.40;99.90
23347;DHT22;36852;45.466;11.066;2023-06-14T08:31:39;24.40;99.90
23347;DHT22;36852;45.466;11.066;2023-06-14T08:34:06;24.40;99.90
23347;DHT22;36852;45.466;11.066;2023-06-14T08:36:37;24.50;99.90
23347;DHT22;36852;45.466;11.066;2023-06-14T08:39:05;24.50;99.90
23347;DHT22;36852;45.466;11.066;2023-06-14T08:41:34;24.60;99.90
23347;DHT22;36852;45.466;11.066;2023-06-14T08:44:02;24.60;99.90
23347;DHT22;36852;45.466;11.066;2023-06-14T08:46:32;24.60;99.90
23347;DHT22;36852;45.466;11.066;2023-06-14T08:49:02;24.60;99.90
23347;DHT22;36852;45.466;11.066;2023-06-14T08:51:31;24.70;99.90
23347;DHT22;36852;45.466;11.066;2023-06-14T08:54:01;24.70;99.90
23347;DHT22;36852;45.466;11.066;2023-06-14T08:56:36;24.80;99.90
23347;DHT22;36852;45.466;11.066;2023-06-14T08:59:05;24.80;99.90
23347;DHT22;36852;45.466;11.066;2023-06-14T09:01:34;24.80;99.90
23347;DHT22;36852;45.466;11.066;2023-06-14T09:04:02;24.90;99.90
23347;DHT22;36852;45.466;11.066;2023-06-14T09:06:32;24.90;99.90
23347;DHT22;36852;45.466;11.066;2023-06-14T09:09:00;24.90;99.90
23347;DHT22;36852;45.466;11.066;2023-06-14T09:11:30;24.90;99.90
23347;DHT22;36852;45.466;11.066;2023-06-14T09:14:00;24.90;99.90
23347;DHT22;36852;45.466;11.066;2023-06-14T09:16:28;24.90;99.90
23347;DHT22;36852;45.466;11.066;2023-06-14T09:18:57;25.00;99.90
23347;DHT22;36852;45.466;11.066;2023-06-14T09:21:26;25.00;99.90
23347;DHT22;36852;45.466;11.066;2023-06-14T09:23:56;25.00;99.90
23347;DHT22;36852;45.466;11.066;2023-06-14T09:26:24;25.00;99.90
23347;DHT22;36852;45.466;11.066;2023-06-14T09:28:54;25.00;99.90
23347;DHT22;36852;45.466;11.066;2023-06-14T09:31:23;25.00;99.90
23347;DHT22;36852;45.466;11.066;2023-06-14T09:33:51;25.00;99.90
23347;DHT22;36852;45.466;11.066;2023-06-14T09:36:21;25.00;99.90
23347;DHT22;36852;45.466;11.066;2023-06-14T09:41:38;25.10;99.90
23347;DHT22;36852;45.466;11.066;2023-06-14T09:44:08;25.10;99.90
23347;DHT22;36852;45.466;11.066;2023-06-14T09:46:38;25.10;99.90
23347;DHT22;36852;45.466;11.066;2023-06-14T09:49:06;25.10;99.90
23347;DHT22;36852;45.466;11.066;2023-06-14T09:51:42;25.10;99.90
23347;DHT22;36852;45.466;11.066;2023-06-14T09:54:07;25.10;99.90
23347;DHT22;36852;45.466;11.066;2023-06-14T09:56:41;25.10;99.90
23347;DHT22;36852;45.466;11.066;2023-06-14T09:59:12;25.20;99.90
23347;DHT22;36852;45.466;11.066;2023-06-14T10:01:42;25.20;99.90
23347;DHT22;36852;45.466;11.066;2023-06-14T10:04:10;25.20;99.90
23347;DHT22;36852;45.466;11.066;2023-06-14T10:06:40;25.30;99.90
23347;DHT22;36852;45.466;11.066;2023-06-14T10:09:10;25.30;99.90
23347;DHT22;36852;45.466;11.066;2023-06-14T10:11:38;25.40;99.90
23347;DHT22;36852;45.466;11.066;2023-06-14T10:14:12;25.40;99.90
23347;DHT22;36852;45.466;11.066;2023-06-14T10:19:24;25.50;99.90
23347;DHT22;36852;45.466;11.066;2023-06-14T10:21:57;25.50;99.90
23347;DHT22;36852;45.466;11.066;2023-06-14T10:24:41;25.50;99.90
23347;DHT22;36852;45.466;11.066;2023-06-14T10:27:07;25.60;99.90
23347;DHT22;36852;45.466;11.066;2023-06-14T10:30:22;25.60;99.90
23347;DHT22;36852;45.466;11.066;2023-06-14T10:32:14;25.70;99.90
23347;DHT22;36852;45.466;11.066;2023-06-14T10:34:42;25.70;99.90
23347;DHT22;36852;45.466;11.066;2023-06-14T10:37:12;25.80;99.90
23347;DHT22;36852;45.466;11.066;2023-06-14T10:39:47;25.90;99.90
23347;DHT22;36852;45.466;11.066;2023-06-14T10:42:15;25.90;99.90
23347;DHT22;36852;45.466;11.066;2023-06-14T10:44:54;26.00;99.90
23347;DHT22;36852;45.466;11.066;2023-06-14T10:47:31;26.00;99.90
23347;DHT22;36852;45.466;11.066;2023-06-14T10:50:10;26.10;99.90
23347;DHT22;36852;45.466;11.066;2023-06-14T10:52:43;26.10;99.90
23347;DHT22;36852;45.466;11.066;2023-06-14T10:55:15;26.20;99.90
23347;DHT22;36852;45.466;11.066;2023-06-14T10:57:53;26.20;99.90
23347;DHT22;36852;45.466;11.066;2023-06-14T11:00:28;26.20;99.90
23347;DHT22;36852;45.466;11.066;2023-06-14T11:06:11;26.30;99.90
23347;DHT22;36852;45.466;11.066;2023-06-14T11:11:32;26.30;99.90
23347;DHT22;36852;45.466;11.066;2023-06-14T11:14:02;26.40;99.90
23347;DHT22;36852;45.466;11.066;2023-06-14T11:16:32;26.40;97.70
23347;DHT22;36852;45.466;11.066;2023-06-14T11:19:01;26.40;97.90
23347;DHT22;36852;45.466;11.066;2023-06-14T11:21:34;26.40;98.10
23347;DHT22;36852;45.466;11.066;2023-06-14T11:24:02;26.40;98.80
23347;DHT22;36852;45.466;11.066;2023-06-14T11:26:33;26.50;99.40
23347;DHT22;36852;45.466;11.066;2023-06-14T11:29:03;26.50;98.50
23347;DHT22;36852;45.466;11.066;2023-06-14T11:31:31;26.60;98.50
23347;DHT22;36852;45.466;11.066;2023-06-14T11:33:59;26.70;99.00
23347;DHT22;36852;45.466;11.066;2023-06-14T11:36:31;26.70;98.40
23347;DHT22;36852;45.466;11.066;2023-06-14T11:39:00;26.80;98.20
23347;DHT22;36852;45.466;11.066;2023-06-14T11:41:41;26.80;97.80
23347;DHT22;36852;45.466;11.066;2023-06-14T11:44:09;26.90;97.60
23347;DHT22;36852;45.466;11.066;2023-06-14T11:46:38;26.90;96.50
23347;DHT22;36852;45.466;11.066;2023-06-14T11:49:11;26.90;96.20
23347;DHT22;36852;45.466;11.066;2023-06-14T11:51:39;26.90;96.60
23347;DHT22;36852;45.466;11.066;2023-06-14T11:54:07;27.00;97.20
23347;DHT22;36852;45.466;11.066;2023-06-14T11:56:36;27.00;97.30
23347;DHT22;36852;45.466;11.066;2023-06-14T11:59:05;27.10;97.20
23347;DHT22;36852;45.466;11.066;2023-06-14T12:01:35;27.20;97.10
23347;DHT22;36852;45.466;11.066;2023-06-14T12:04:04;27.30;97.30
23347;DHT22;36852;45.466;11.066;2023-06-14T12:06:32;27.30;97.40
23347;DHT22;36852;45.466;11.066;2023-06-14T12:09:10;27.40;97.90
23347;DHT22;36852;45.466;11.066;2023-06-14T12:11:41;27.40;97.70
23347;DHT22;36852;45.466;11.066;2023-06-14T12:14:09;27.50;97.90
23347;DHT22;36852;45.466;11.066;2023-06-14T12:16:39;27.50;98.20
23347;DHT22;36852;45.466;11.066;2023-06-14T12:19:15;27.60;98.80
23347;DHT22;36852;45.466;11.066;2023-06-14T12:21:47;27.60;98.20
23347;DHT22;36852;45.466;11.066;2023-06-14T12:24:19;27.70;97.90
23347;DHT22;36852;45.466;11.066;2023-06-14T12:26:51;27.80;98.40
23347;DHT22;36852;45.466;11.066;2023-06-14T12:29:37;27.80;97.60
23347;DHT22;36852;45.466;11.066;2023-06-14T12:32:06;27.90;95.90
23347;DHT22;36852;45.466;11.066;2023-06-14T12:34:34;27.80;95.10
23347;DHT22;36852;45.466;11.066;2023-06-14T12:37:03;27.80;95.00
23347;DHT22;36852;45.466;11.066;2023-06-14T12:39:31;27.90;95.70
23347;DHT22;36852;45.466;11.066;2023-06-14T12:42:00;27.90;96.00
23347;DHT22;36852;45.466;11.066;2023-06-14T12:44:30;27.90;95.70
23347;DHT22;36852;45.466;11.066;2023-06-14T12:47:00;28.00;95.10
23347;DHT22;36852;45.466;11.066;2023-06-14T12:49:28;28.00;93.40
23347;DHT22;36852;45.466;11.066;2023-06-14T12:51:56;28.00;92.60
23347;DHT22;36852;45.466;11.066;2023-06-14T12:54:24;27.90;92.40
23347;DHT22;36852;45.466;11.066;2023-06-14T12:56:58;27.90;92.70
23347;DHT22;36852;45.466;11.066;2023-06-14T12:59:26;27.90;93.20
23347;DHT22;36852;45.466;11.066;2023-06-14T13:02:10;28.00;93.40
23347;DHT22;36852;45.466;11.066;2023-06-14T13:04:30;28.00;93.10
23347;DHT22;36852;45.466;11.066;2023-06-14T13:06:58;28.10;93.60
23347;DHT22;36852;45.466;11.066;2023-06-14T13:09:26;28.20;92.50
23347;DHT22;36852;45.466;11.066;2023-06-14T13:11:57;28.20;92.20
23347;DHT22;36852;45.466;11.066;2023-06-14T13:14:25;28.30;92.00
23347;DHT22;36852;45.466;11.066;2023-06-14T13:16:53;28.40;92.90
23347;DHT22;36852;45.466;11.066;2023-06-14T13:19:22;28.50;92.60
23347;DHT22;36852;45.466;11.066;2023-06-14T13:21:50;28.60;91.60
23347;DHT22;36852;45.466;11.066;2023-06-14T13:24:19;28.70;91.90
23347;DHT22;36852;45.466;11.066;2023-06-14T13:26:47;28.70;88.10
23347;DHT22;36852;45.466;11.066;2023-06-14T13:29:15;28.80;89.10
23347;DHT22;36852;45.466;11.066;2023-06-14T13:31:43;28.90;90.50
23347;DHT22;36852;45.466;11.066;2023-06-14T13:34:12;28.90;90.00
23347;DHT22;36852;45.466;11.066;2023-06-14T13:36:40;29.10;87.90
23347;DHT22;36852;45.466;11.066;2023-06-14T13:39:10;29.10;86.50
23347;DHT22;36852;45.466;11.066;2023-06-14T13:41:38;29.20;88.00
23347;DHT22;36852;45.466;11.066;2023-06-14T13:44:06;29.30;86.00
23347;DHT22;36852;45.466;11.066;2023-06-14T13:46:34;29.30;83.20
23347;DHT22;36852;45.466;11.066;2023-06-14T13:49:02;29.30;83.60
23347;DHT22;36852;45.466;11.066;2023-06-14T13:51:32;29.40;80.90
23347;DHT22;36852;45.466;11.066;2023-06-14T13:54:00;29.30;79.70
23347;DHT22;36852;45.466;11.066;2023-06-14T13:56:31;29.40;77.60
23347;DHT22;36852;45.466;11.066;2023-06-14T13:58:59;29.40;76.10
23347;DHT22;36852;45.466;11.066;2023-06-14T14:01:27;29.40;74.80
23347;DHT22;36852;45.466;11.066;2023-06-14T14:03:56;29.50;75.20
23347;DHT22;36852;45.466;11.066;2023-06-14T14:06:24;29.50;75.30
23347;DHT22;36852;45.466;11.066;2023-06-14T14:08:52;29.60;75.80
23347;DHT22;36852;45.466;11.066;2023-06-14T14:11:21;29.60;74.50
23347;DHT22;36852;45.466;11.066;2023-06-14T14:13:49;29.50;74.40
23347;DHT22;36852;45.466;11.066;2023-06-14T14:16:19;29.50;73.40
23347;DHT22;36852;45.466;11.066;2023-06-14T14:18:47;29.60;69.60
23347;DHT22;36852;45.466;11.066;2023-06-14T14:21:16;29.70;68.20
23347;DHT22;36852;45.466;11.066;2023-06-14T14:23:47;29.80;68.40
23347;DHT22;36852;45.466;11.066;2023-06-14T14:26:17;29.90;70.40
23347;DHT22;36852;45.466;11.066;2023-06-14T14:28:45;29.90;68.90
23347;DHT22;36852;45.466;11.066;2023-06-14T14:31:14;30.00;69.70
23347;DHT22;36852;45.466;11.066;2023-06-14T14:33:45;30.10;72.50
23347;DHT22;36852;45.466;11.066;2023-06-14T14:36:13;30.20;72.00
23347;DHT22;36852;45.466;11.066;2023-06-14T14:38:41;30.40;73.80
23347;DHT22;36852;45.466;11.066;2023-06-14T14:41:09;30.60;76.40
23347;DHT22;36852;45.466;11.066;2023-06-14T14:43:37;30.70;76.30
23347;DHT22;36852;45.466;11.066;2023-06-14T14:46:05;30.80;74.30
23347;DHT22;36852;45.466;11.066;2023-06-14T14:48:33;30.90;74.40
23347;DHT22;36852;45.466;11.066;2023-06-14T14:51:01;31.10;76.10
23347;DHT22;36852;45.466;11.066;2023-06-14T14:53:29;31.10;76.00
23347;DHT22;36852;45.466;11.066;2023-06-14T14:55:58;31.10;73.90
23347;DHT22;36852;45.466;11.066;2023-06-14T14:58:30;31.10;70.60
23347;DHT22;36852;45.466;11.066;2023-06-14T15:00:58;31.30;66.40
23347;DHT22;36852;45.466;11.066;2023-06-14T15:03:28;31.20;67.20
23347;DHT22;36852;45.466;11.066;2023-06-14T15:05:56;31.30;70.60
23347;DHT22;36852;45.466;11.066;2023-06-14T15:08:24;31.50;70.30
23347;DHT22;36852;45.466;11.066;2023-06-14T15:10:52;31.50;66.80
23347;DHT22;36852;45.466;11.066;2023-06-14T15:13:26;31.70;65.10
23347;DHT22;36852;45.466;11.066;2023-06-14T15:16:05;31.80;69.90
23347;DHT22;36852;45.466;11.066;2023-06-14T15:18:33;32.00;68.60
23347;DHT22;36852;45.466;11.066;2023-06-14T15:21:02;32.10;64.20
23347;DHT22;36852;45.466;11.066;2023-06-14T15:23:33;32.10;64.90
23347;DHT22;36852;45.466;11.066;2023-06-14T15:26:01;32.10;69.70
23347;DHT22;36852;45.466;11.066;2023-06-14T15:28:29;32.20;70.40
23347;DHT22;36852;45.466;11.066;2023-06-14T15:30:57;32.10;64.50
23347;DHT22;36852;45.466;11.066;2023-06-14T15:33:28;32.10;65.70
23347;DHT22;36852;45.466;11.066;2023-06-14T15:35:56;32.00;68.30
23347;DHT22;36852;45.466;11.066;2023-06-14T15:38:28;31.90;68.00
23347;DHT22;36852;45.466;11.066;2023-06-14T15:40:56;32.00;67.30
23347;DHT22;36852;45.466;11.066;2023-06-14T15:43:24;31.90;65.00
23347;DHT22;36852;45.466;11.066;2023-06-14T15:45:56;31.80;66.70
23347;DHT22;36852;45.466;11.066;2023-06-14T15:48:24;31.60;68.10
23347;DHT22;36852;45.466;11.066;2023-06-14T15:50:52;31.50;71.00
23347;DHT22;36852;45.466;11.066;2023-06-14T15:53:22;31.50;69.50
23347;DHT22;36852;45.466;11.066;2023-06-14T15:55:50;31.40;69.40